CPX216 Details

Departure: Chicago/Rockford International Airport (KRFD) at 2330 UTC
Arrival: Sacramento International Airport (KSMF) at 0340 UTC
Route: DBQ J94 BFF J157 LAR TCH J154 BAM J94 LLC ANAHO SLMMR3
Notes:


Current Weather Information
KRFD 191554Z 05007KT 10SM SCT033 OVC048 24/19 A3005 RMK AO2 SLP170 T02440189
KSMF 191553Z 20004KT 10SM FEW250 17/13 A2993 RMK AO2 SLP135 T01720133